Time;durP1;ratioP1;P1;durP2;ratioP2;P2;SDS_P1;SDS_P2;PMS_P1;PMS_P2;Temp;Humidity;BMP_temperature;BMP_pressure;BME280_temperature;BME280_humidity;BME280_pressure;Samples;Min_cycle;Max_cycle;Signal;HPM_P1;HPM_P2
2022/05/28 00:02:18;;;;;;;1.60;1.50;;;17.40;75.50;;;17.86;49.04;99059.06;4918882;28;125234;-90
2022/05/28 00:09:04;;;;;;;4.03;1.53;;;17.40;75.70;;;17.81;49.30;99046.19;4920642;28;116240;-90
2022/05/28 00:11:35;;;;;;;4.63;2.20;;;17.30;75.90;;;17.82;49.67;99055.38;4904836;28;117170;-90
2022/05/28 00:17:44;;;;;;;1.80;1.30;;;17.30;76.50;;;17.71;49.82;99063.41;4921555;28;124252;-90
2022/05/28 00:23:54;;;;;;;2.60;1.90;;;17.30;76.80;;;17.65;50.28;99081.56;4911203;28;114878;-91
2022/05/28 00:30:04;;;;;;;3.20;1.70;;;17.20;77.30;;;17.49;50.70;99078.72;4903358;28;124806;-89
2022/05/28 00:32:49;;;;;;;2.47;1.93;;;17.10;77.60;;;17.45;51.01;99067.41;4885820;28;114432;-90
2022/05/28 00:35:53;;;;;;;2.70;1.63;;;17.10;77.90;;;17.42;51.13;99075.69;4883102;28;114731;-91
2022/05/28 00:42:02;;;;;;;2.30;1.90;;;17.00;78.20;;;17.30;51.15;99075.69;4902839;28;124807;-91
2022/05/28 00:44:29;;;;;;;3.93;2.00;;;16.90;78.10;;;17.27;51.08;99076.41;5019714;23;112059;-83
2022/05/28 00:50:39;;;;;;;4.90;1.77;;;16.80;77.90;;;17.23;50.92;99071.53;4902874;28;125090;-89
2022/05/28 00:57:26;;;;;;;2.23;1.73;;;16.80;78.00;;;17.19;51.00;99076.19;4902609;28;115286;-89
2022/05/28 01:04:06;;;;;;;2.30;1.60;;;16.70;78.40;;;17.20;51.41;99077.81;4894815;28;125163;-82
2022/05/28 01:10:53;;;;;;;3.93;1.80;;;16.70;78.90;;;17.15;51.71;99066.88;4902740;28;116282;-88
2022/05/28 01:17:41;;;;;;;1.70;1.40;;;16.70;79.20;;;17.05;51.75;99074.91;4883783;28;125149;-84
2022/05/28 01:24:08;;;;;;;1.90;1.50;;;16.60;79.50;;;16.99;51.96;99071.53;4884028;28;115363;-84
2022/05/28 01:27:02;;;;;;;3.53;1.83;;;16.50;79.30;;;16.96;51.81;99077.81;4864813;28;114673;-83
2022/05/28 01:33:14;;;;;;;2.10;1.90;;;16.50;79.30;;;16.85;51.80;99071.88;4883558;28;124766;-92
2022/05/28 01:39:25;;;;;;;3.60;1.80;;;16.40;79.10;;;16.75;51.57;99067.53;4897963;28;115015;-79
2022/05/28 01:49:19;;;;;;;2.07;1.63;;;16.30;79.00;;;16.69;51.79;99073.69;4902772;28;115356;-80
2022/05/28 01:55:34;;;;;;;2.23;1.70;;;16.20;78.50;;;16.61;51.15;99078.22;4902511;28;125199;-78
2022/05/28 02:01:43;;;;;;;2.80;1.40;;;16.10;77.80;;;16.51;50.65;99073.06;4905524;28;115300;-86
2022/05/28 02:04:12;;;;;;;4.67;1.83;;;16.10;77.40;;;16.45;50.44;99075.25;4888546;28;114685;-91
2022/05/28 02:10:22;;;;;;;3.80;1.90;;;15.90;76.60;;;16.31;50.02;99066.41;4905615;28;124856;-79
2022/05/28 02:16:54;;;;;;;3.33;1.73;;;15.90;76.30;;;16.21;49.81;99072.41;4904894;28;115926;-79
2022/05/28 02:23:24;;;;;;;4.87;2.20;;;15.70;75.50;;;15.95;49.37;99067.06;4905445;28;124860;-83
2022/05/28 02:29:34;;;;;;;6.00;1.60;;;15.50;74.90;;;15.81;49.57;99057.03;4904942;28;115106;-89
2022/05/28 02:32:40;;;;;;;3.50;1.80;;;15.40;74.80;;;15.79;49.41;99045.41;4904245;28;124877;-90
2022/05/28 02:35:26;;;;;;;2.70;2.00;;;15.40;74.80;;;15.80;49.41;99065.75;4882387;28;123163;-90
2022/05/28 02:38:31;;;;;;;4.30;2.53;;;15.40;74.70;;;15.76;49.21;99065.59;4866352;29;115291;-90
2022/05/28 02:40:59;;;;;;;3.77;2.60;;;15.40;74.50;;;15.73;48.85;99063.50;4885288;28;114748;-85
2022/05/28 02:43:27;;;;;;;5.43;2.13;;;15.30;74.20;;;15.68;48.89;99058.94;4883346;28;123388;-90
2022/05/28 02:49:35;;;;;;;5.67;1.77;;;15.30;73.90;;;15.61;48.73;99066.19;4885630;29;115271;-90
2022/05/28 02:55:44;;;;;;;2.10;1.27;;;15.20;73.70;;;15.59;48.78;99058.16;4885456;29;125290;-90
2022/05/28 03:01:53;;;;;;;3.00;1.77;;;15.10;73.60;;;15.57;48.71;99059.66;4886064;28;115304;-79
2022/05/28 03:08:01;;;;;;;3.47;1.70;;;15.10;73.40;;;15.45;48.33;99061.22;4885503;28;125160;-88
2022/05/28 03:14:11;;;;;;;5.90;1.80;;;14.20;72.20;;;15.31;48.39;99069.00;4904446;28;116298;-80
2022/05/28 03:20:20;;;;;;;6.83;1.47;;;14.90;72.70;;;15.22;48.30;99074.63;4904321;28;125216;-81
2022/05/28 03:26:30;;;;;;;4.70;1.50;;;14.80;72.40;;;15.10;48.29;99068.97;4904909;28;115295;-76
2022/05/28 03:32:38;;;;;;;3.20;1.60;;;14.70;72.10;;;15.07;48.12;99071.59;4904496;28;125149;-80
2022/05/28 03:36:02;;;;;;;4.50;1.97;;;14.60;72.00;;;15.08;47.94;99067.69;4904402;28;126553;-80
2022/05/28 04:10:27;;;;;;;2.17;1.53;;;14.40;71.40;;;15.01;47.56;99096.03;5982303;23;97890;31
2022/05/28 04:16:35;;;;;;;4.07;1.70;;;14.50;71.30;;;14.89;47.53;99101.50;4884656;28;116158;-80
2022/05/28 04:22:44;;;;;;;3.73;1.70;;;14.40;70.90;;;14.77;47.52;99104.97;4884577;28;125127;-80
2022/05/28 04:28:53;;;;;;;3.33;1.20;;;14.30;70.70;;;14.67;47.68;99125.63;4885023;28;115320;-78
2022/05/28 04:31:39;;;;;;;2.40;1.37;;;14.30;71.30;;;14.71;47.82;99125.75;4884736;28;114731;-81
2022/05/28 04:45:12;;;;;;;4.50;1.80;;;14.10;70.50;;;14.67;47.53;99124.78;4884684;28;114970;-79
2022/05/28 04:51:20;;;;;;;2.70;1.57;;;14.20;70.40;;;14.63;47.49;99130.19;4884298;28;124765;-88
2022/05/28 04:57:29;;;;;;;6.40;1.80;;;14.10;70.30;;;14.56;47.44;99130.72;4879310;28;114998;-85
2022/05/28 05:03:38;;;;;;;3.33;1.50;;;11.80;68.10;;;14.47;47.52;99135.44;4884160;28;124838;-80
2022/05/28 05:09:47;;;;;;;5.13;1.77;;;15.40;71.60;;;14.43;47.58;99137.25;4884226;28;115015;-81
2022/05/28 05:15:55;;;;;;;3.30;1.67;;;14.00;70.40;;;14.41;47.62;99145.09;4883797;28;124818;-89
2022/05/28 05:22:05;;;;;;;3.47;1.77;;;14.00;70.50;;;14.43;47.55;99142.81;4883106;29;115938;-91
2022/05/28 05:28:13;;;;;;;3.93;1.87;;;14.00;70.50;;;14.42;47.58;99152.28;4883493;29;124759;-80
2022/05/28 05:34:22;;;;;;;2.37;1.60;;;14.00;70.60;;;14.48;47.62;99153.78;4885395;28;114968;-87
2022/05/28 05:52:29;;;;;;;2.57;1.53;;;14.20;71.10;;;14.84;47.44;99140.63;4905473;28;124824;-85
2022/05/28 05:58:38;;;;;;;4.33;1.90;;;14.30;70.90;;;14.91;47.02;99138.13;4905837;28;115028;-84
2022/05/28 06:04:49;;;;;;;5.50;1.90;;;14.40;70.30;;;14.96;46.98;99146.28;4890243;28;125920;-91
2022/05/28 06:11:16;;;;;;;2.90;1.50;;;14.50;70.00;;;15.06;46.70;99153.47;4906260;28;115002;-85
2022/05/28 06:17:25;;;;;;;2.87;1.50;;;14.50;69.60;;;15.17;46.55;99149.16;4904924;28;124806;-90
2022/05/28 06:23:34;;;;;;;3.87;1.80;;;14.70;69.10;;;15.28;45.97;99146.81;4905615;28;116109;-90
2022/05/28 06:29:42;;;;;;;7.50;3.33;;;14.80;68.90;;;15.40;45.16;99147.72;4886069;28;124792;-79
2022/05/28 06:39:34;;;;;;;3.07;1.70;;;14.90;67.00;;;15.55;44.28;99148.28;4877477;28;125217;-89
2022/05/28 06:42:21;;;;;;;3.50;1.30;;;15.00;66.70;;;15.60;43.63;99145.31;4868980;28;121995;-91
2022/05/28 06:56:33;;;;;;;4.37;1.57;;;15.20;65.30;;;15.88;43.00;99156.81;4881986;28;124371;-91
2022/05/28 07:02:41;;;;;;;3.17;1.60;;;15.40;64.80;;;15.98;42.69;99167.53;4884865;29;114835;-90
2022/05/28 07:08:50;;;;;;;3.87;1.90;;;15.50;64.40;;;16.13;42.59;99146.59;4888289;28;124888;-91
2022/05/28 07:14:59;;;;;;;3.63;1.40;;;15.60;63.70;;;16.20;41.79;99141.31;4878223;28;114247;-90
2022/05/28 07:21:11;;;;;;;3.13;1.50;;;15.70;62.80;;;16.32;41.77;99143.31;4890115;28;124793;-92
2022/05/28 07:27:20;;;;;;;6.43;2.30;;;15.80;62.40;;;16.34;41.27;99147.38;4880585;29;115239;-90
2022/05/28 07:29:46;;;;;;;3.47;1.43;;;15.80;61.90;;;16.40;41.30;99149.97;4858848;29;123773;-92
2022/05/28 07:32:34;;;;;;;7.13;2.40;;;15.90;62.00;;;16.42;40.54;99147.66;4859937;29;123671;-93
2022/05/28 07:38:43;;;;;;;2.20;1.23;;;15.90;60.90;;;16.50;40.54;99141.19;4881306;29;114943;-90
2022/05/28 07:41:32;;;;;;;4.40;1.63;;;15.90;60.40;;;16.55;40.36;99133.41;4871217;29;123871;-89
2022/05/28 07:44:00;;;;;;;2.30;1.20;;;16.00;60.30;;;16.65;40.46;99134.13;4855723;29;122812;-91
2022/05/28 07:46:34;;;;;;;9.50;1.50;;;16.10;60.60;;;16.71;39.79;99130.78;4863942;29;114048;-89
2022/05/28 07:49:22;;;;;;;3.60;1.40;;;16.10;59.90;;;16.67;39.98;99127.03;4857062;29;113752;-89
2022/05/28 07:51:48;;;;;;;3.70;1.40;;;16.10;59.60;;;16.61;39.80;99122.84;4853946;29;123566;-88
2022/05/28 07:54:16;;;;;;;3.63;1.20;;;16.10;59.40;;;16.64;40.02;99127.72;4863337;29;124439;-91
2022/05/28 07:56:43;;;;;;;2.83;1.40;;;16.10;59.50;;;16.69;39.70;99119.13;4868862;29;113189;-90
2022/05/28 07:59:30;;;;;;;2.17;1.33;;;16.10;59.30;;;16.69;39.93;99116.34;4833924;29;113364;-88
2022/05/28 08:01:59;;;;;;;2.10;1.40;;;16.20;59.20;;;16.74;39.53;99113.34;4844262;29;123283;-89
2022/05/28 08:04:28;;;;;;;3.07;1.20;;;16.20;59.10;;;16.82;39.12;99106.06;4824408;29;125961;-89
2022/05/28 08:07:14;;;;;;;3.40;1.30;;;16.30;58.60;;;16.89;38.39;99111.06;4852919;29;114106;-88
2022/05/28 08:10:18;;;;;;;5.90;1.30;;;16.30;57.70;;;16.91;38.40;99111.53;4869802;29;114939;-88
2022/05/28 08:12:46;;;;;;;1.80;1.40;;;16.30;57.50;;;16.95;38.22;99104.91;4849879;28;122210;-89
2022/05/28 08:16:11;;;;;;;3.57;1.03;;;16.30;57.20;;;16.91;37.70;99105.94;4865989;29;123329;-90
2022/05/28 08:18:39;;;;;;;4.07;1.30;;;16.40;56.00;;;16.91;37.68;99108.75;4861969;29;115154;-89
2022/05/28 08:24:48;;;;;;;3.23;1.20;;;16.40;56.10;;;16.85;38.27;99122.13;4888214;28;124393;-89
2022/05/28 08:27:36;;;;;;;2.60;1.10;;;16.40;56.60;;;16.88;38.29;99104.66;4896963;28;123032;-88
2022/05/28 08:30:22;;;;;;;6.80;1.67;;;16.40;56.60;;;16.91;38.41;99108.75;4843535;29;115115;-89
2022/05/28 08:33:11;;;;;;;3.13;1.20;;;16.40;56.70;;;16.97;38.42;99099.78;4856606;29;112970;-91
2022/05/28 08:35:40;;;;;;;3.60;1.40;;;16.50;57.10;;;17.07;38.55;99104.09;4856636;29;123922;-89
2022/05/28 08:38:13;;;;;;;2.93;1.60;;;16.50;57.20;;;17.13;38.26;99102.69;4832843;29;122374;-89
2022/05/28 08:41:06;;;;;;;4.00;1.27;;;16.50;56.90;;;17.15;38.31;99094.00;4845370;28;113888;-88
2022/05/28 08:43:37;;;;;;;4.30;1.40;;;16.60;56.80;;;17.14;38.23;99104.34;4859293;28;112604;-89
2022/05/28 08:46:04;;;;;;;5.43;1.77;;;16.60;56.70;;;17.11;38.17;99107.00;4833110;29;124515;-88
2022/05/28 08:48:50;;;;;;;4.00;1.80;;;16.60;56.40;;;17.03;38.41;99103.16;4830580;29;124051;-89
2022/05/28 08:51:52;;;;;;;3.73;1.40;;;16.60;56.60;;;17.03;38.16;99092.00;4852830;28;113967;-88
2022/05/28 08:54:58;;;;;;;1.77;1.13;;;16.50;56.30;;;17.10;38.52;99088.63;4838851;29;113441;-90
2022/05/28 08:58:10;;;;;;;2.27;1.30;;;16.60;56.90;;;17.13;38.41;99083.16;4843788;29;123168;-88
2022/05/28 09:00:49;;;;;;;3.67;1.53;;;16.60;57.00;;;17.17;38.22;99089.69;4866994;28;124623;-89
2022/05/28 09:03:22;;;;;;;4.17;1.47;;;16.60;56.90;;;17.16;38.53;99076.88;4842700;29;114342;-89
2022/05/28 09:09:44;;;;;;;2.10;1.30;;;16.60;56.90;;;17.22;38.48;99078.28;4854918;29;124289;-88
2022/05/28 09:13:09;;;;;;;9.43;1.53;;;16.70;56.90;;;17.25;38.33;99070.34;4813968;29;123080;-89
2022/05/28 09:15:37;;;;;;;2.37;1.53;;;16.70;56.60;;;17.32;38.14;99065.00;4840256;28;113663;-90
2022/05/28 09:18:06;;;;;;;5.37;1.57;;;16.70;56.50;;;17.34;38.31;99085.03;4828717;29;112536;-89
2022/05/28 09:20:52;;;;;;;4.03;1.83;;;16.70;56.50;;;17.38;38.07;99078.38;4842132;29;124239;-88
2022/05/28 09:23:18;;;;;;;3.30;1.60;;;16.80;56.50;;;17.43;37.92;99077.31;4842423;28;123750;-91
2022/05/28 09:26:05;;;;;;;2.30;1.20;;;16.90;56.40;;;17.44;37.89;99071.38;4845091;29;114341;-90
2022/05/28 09:29:30;;;;;;;3.20;1.60;;;16.90;56.10;;;17.44;37.87;99067.78;4849394;29;114273;-91
2022/05/28 09:32:33;;;;;;;5.73;1.67;;;17.00;55.80;;;17.42;37.59;99070.09;4860025;29;124472;-89
2022/05/28 09:35:46;;;;;;;2.37;1.23;;;17.00;55.70;;;17.40;38.08;99070.44;4863969;29;123960;-89
2022/05/28 09:39:17;;;;;;;3.23;1.50;;;17.00;56.00;;;17.45;38.05;99066.59;4863442;28;114285;-90
2022/05/28 09:42:11;;;;;;;2.87;1.37;;;17.00;56.20;;;17.48;37.56;99065.91;4845297;28;114253;-89
2022/05/28 09:44:40;;;;;;;3.33;1.40;;;17.00;55.40;;;17.51;37.65;99067.97;4849257;28;124194;-90
2022/05/28 09:47:25;;;;;;;1.20;0.90;;;17.00;55.40;;;17.52;37.46;99054.84;4849871;28;123165;-90
2022/05/28 09:50:38;;;;;;;2.90;1.20;;;17.00;55.20;;;17.58;37.38;99047.84;4840997;29;114715;-90
2022/05/28 09:56:36;;;;;;;2.50;1.33;;;17.10;55.10;;;17.70;37.39;99049.78;4832449;29;124533;-91
2022/05/28 09:59:29;;;;;;;2.20;1.10;;;17.20;55.30;;;17.74;37.53;99043.13;4837026;29;123479;-90
2022/05/28 10:02:17;;;;;;;6.00;1.70;;;17.20;55.10;;;17.77;37.21;99041.63;4843747;28;113500;-90
2022/05/28 10:05:00;;;;;;;4.50;1.20;;;17.20;54.90;;;17.84;37.01;99047.47;4838005;29;114316;-90
2022/05/28 10:07:46;;;;;;;4.27;1.80;;;17.30;55.00;;;17.92;36.72;99035.31;4820163;29;124096;-91
2022/05/28 10:10:39;;;;;;;3.87;1.67;;;17.40;54.30;;;17.96;36.51;99030.63;4821517;29;124127;-90
2022/05/28 10:13:12;;;;;;;3.83;1.50;;;17.40;54.10;;;18.05;36.49;99036.88;4823690;29;114928;-92
2022/05/28 10:15:53;;;;;;;3.73;1.50;;;17.50;54.20;;;18.10;36.12;99031.00;4823031;29;115152;-91
2022/05/28 10:18:31;;;;;;;4.77;1.80;;;17.50;53.80;;;18.16;36.71;99037.19;4839594;29;124395;-91
2022/05/28 10:21:30;;;;;;;2.93;1.80;;;17.60;54.10;;;18.20;36.55;99029.69;4824920;29;123642;-90
2022/05/28 10:24:02;;;;;;;4.20;2.00;;;17.70;54.20;;;18.21;36.25;99020.13;4839656;28;113592;-91
2022/05/28 10:26:39;;;;;;;3.07;1.40;;;17.70;53.70;;;18.23;36.08;99022.56;4853063;28;113428;-93
2022/05/28 10:29:19;;;;;;;5.40;2.97;;;17.70;53.70;;;18.25;35.86;99035.03;4842040;29;123987;-90
2022/05/28 10:32:44;;;;;;;5.13;2.60;;;17.80;53.10;;;18.25;36.09;99032.22;4851382;28;123491;-91
2022/05/28 10:35:28;;;;;;;4.53;1.73;;;17.80;53.30;;;18.22;35.88;99023.75;4833233;29;113762;-92
2022/05/28 10:38:16;;;;;;;3.40;1.50;;;17.70;52.90;;;18.23;36.11;99028.97;4844986;29;113523;-91
2022/05/28 10:41:15;;;;;;;6.23;2.70;;;17.70;53.30;;;18.25;36.09;99028.63;4830101;29;123554;-91
2022/05/28 10:43:42;;;;;;;7.80;2.20;;;17.80;52.90;;;18.28;35.78;99033.50;4835664;29;123496;-92
2022/05/28 10:46:33;;;;;;;6.30;2.30;;;17.80;53.00;;;18.31;35.83;99027.19;4828901;29;114252;-91
2022/05/28 10:49:30;;;;;;;3.40;1.90;;;17.80;52.80;;;18.34;35.88;99029.25;4842113;29;113201;-91
2022/05/28 10:52:16;;;;;;;6.30;2.87;;;18.40;53.60;;;18.37;35.94;99034.13;4851038;28;123935;-92
2022/05/28 10:54:59;;;;;;;4.20;2.10;;;17.80;53.20;;;18.43;35.84;99029.09;4826223;29;122956;-89
2022/05/28 10:57:40;;;;;;;6.03;2.63;;;17.90;53.00;;;18.41;34.15;99035.06;4829521;29;114261;-89
2022/05/28 11:00:15;;;;;;;2.93;1.77;;;17.90;50.20;;;18.44;33.69;99017.53;4850304;28;114078;-89
2022/05/28 11:03:05;;;;;;;4.53;2.30;;;17.90;49.80;;;18.49;34.00;99022.88;4837035;29;125000;-92
2022/05/28 11:05:56;;;;;;;4.27;1.40;;;18.00;50.20;;;18.57;34.24;99025.88;4852761;28;123086;-92
2022/05/28 11:09:10;;;;;;;6.70;1.90;;;18.00;50.40;;;18.58;34.09;99008.69;4841207;28;115701;-91
2022/05/28 11:12:33;;;;;;;3.20;1.50;;;18.10;50.40;;;18.64;34.02;99009.25;4852960;28;114967;-91
2022/05/28 11:15:37;;;;;;;3.83;1.87;;;18.10;50.30;;;18.71;34.14;99006.63;4861604;28;123871;-91
2022/05/28 11:18:17;;;;;;;2.70;1.70;;;18.20;50.50;;;18.75;34.35;98988.78;4832402;29;123993;-91
2022/05/28 11:24:53;;;;;;;2.47;1.27;;;18.30;49.90;;;18.82;33.89;98996.53;4865671;29;114971;-91
2022/05/28 11:28:20;;;;;;;3.20;1.53;;;18.30;50.00;;;18.82;33.56;98992.94;4852559;29;123817;-90
2022/05/28 11:31:45;;;;;;;3.83;1.63;;;18.40;49.40;;;18.78;32.43;98987.25;4865266;28;123513;-90
2022/05/28 11:34:57;;;;;;;2.63;1.50;;;18.30;47.50;;;18.81;32.94;98980.91;4870398;28;114159;-91
2022/05/28 11:37:52;;;;;;;3.97;1.43;;;18.40;48.10;;;18.94;32.98;98973.19;4846384;28;113789;-90
2022/05/28 11:40:23;;;;;;;3.33;1.10;;;18.40;48.40;;;19.02;32.69;98974.19;4851672;28;123248;-91
2022/05/28 11:43:16;;;;;;;2.77;1.40;;;18.50;48.20;;;19.07;32.11;98965.50;4842552;29;123256;-90
2022/05/28 11:46:00;;;;;;;3.20;1.30;;;18.50;47.10;;;19.05;32.26;98962.25;4825686;29;113082;-92
2022/05/28 11:52:42;;;;;;;4.13;1.60;;;18.60;47.30;;;19.14;32.35;98948.88;4849876;28;124513;-93
2022/05/28 11:55:23;;;;;;;3.70;1.67;;;18.70;47.40;;;19.24;31.87;98944.69;4854132;28;123742;-92
2022/05/28 11:58:06;;;;;;;3.07;1.60;;;18.70;46.90;;;19.26;31.56;98934.72;4826816;29;113483;-90
2022/05/28 12:00:37;;;;;;;2.10;1.30;;;18.80;46.30;;;19.29;31.39;98934.00;4842572;28;114972;-93
2022/05/28 12:03:25;;;;;;;2.30;1.20;;;18.80;45.90;;;19.37;31.52;98949.78;4853721;28;124278;-92
2022/05/28 12:06:04;;;;;;;2.87;1.00;;;18.90;46.20;;;19.46;31.90;98931.94;4851042;28;123801;-93
2022/05/28 12:08:36;;;;;;;2.90;1.40;;;19.00;46.60;;;19.55;32.02;98926.91;4852132;28;113423;-93
2022/05/28 12:11:21;;;;;;;4.87;1.57;;;19.00;46.90;;;19.65;31.71;98923.53;4840804;29;113980;-92
2022/05/28 12:13:56;;;;;;;2.70;1.23;;;19.10;46.70;;;19.73;31.76;98919.72;4858416;28;124642;-92
2022/05/28 12:16:38;;;;;;;3.73;1.57;;;19.20;46.90;;;19.81;31.94;98927.06;4824896;29;123256;-92
2022/05/28 12:19:22;;;;;;;3.00;1.50;;;19.30;46.70;;;19.91;31.46;98919.22;4826589;29;112719;-92
2022/05/28 12:21:49;;;;;;;2.27;1.17;;;19.30;46.50;;;20.00;31.68;98914.19;4830797;28;113936;-92
2022/05/28 12:24:18;;;;;;;4.40;1.47;;;19.40;46.60;;;20.08;31.05;98913.16;4841785;29;124535;-91
2022/05/28 12:29:39;;;;;;;2.33;1.10;;;19.60;46.10;;;20.22;31.47;98907.78;4854721;28;114538;-93
2022/05/28 12:32:18;;;;;;;6.33;1.90;;;19.60;46.30;;;20.34;31.25;98897.53;4851399;29;113618;-92
2022/05/28 12:35:23;;;;;;;2.30;1.50;;;19.70;46.60;;;20.43;31.07;98898.09;4856616;28;124058;-92
2022/05/28 12:38:10;;;;;;;4.83;1.67;;;19.80;46.40;;;20.50;30.92;98887.00;4846103;29;122948;-94
2022/05/28 12:40:46;;;;;;;3.93;2.17;;;19.90;45.60;;;20.48;30.72;98884.56;4849164;28;114156;-92
2022/05/28 12:43:34;;;;;;;2.60;1.20;;;19.90;45.50;;;20.49;31.06;98888.97;4849490;28;113793;-92
2022/05/28 12:46:35;;;;;;;3.90;1.30;;;19.90;46.00;;;20.47;30.93;98890.53;4836797;29;124106;-91
2022/05/28 12:49:22;;;;;;;2.70;1.40;;;20.00;45.80;;;20.49;30.93;98883.34;4844419;29;123905;-92
2022/05/28 12:52:24;;;;;;;1.83;1.13;;;20.00;46.00;;;20.50;31.28;98881.38;4854037;28;113244;-91
2022/05/28 12:55:31;;;;;;;2.37;1.03;;;20.10;46.30;;;20.45;31.07;98882.50;4855193;28;115103;-92
2022/05/28 12:58:06;;;;;;;2.60;1.13;;;20.00;45.90;;;20.48;31.36;98869.72;4834276;29;122990;-92
2022/05/28 13:00:51;;;;;;;1.90;1.43;;;20.00;46.10;;;20.58;31.23;98869.13;4856071;28;123968;-92
2022/05/28 13:03:23;;;;;;;3.27;1.47;;;20.10;46.10;;;20.68;31.05;98868.44;4845456;28;115318;-92
2022/05/28 13:06:20;;;;;;;5.00;1.70;;;20.10;45.90;;;20.82;30.62;98864.22;4833015;29;114244;-92
2022/05/28 13:09:02;;;;;;;4.20;1.47;;;20.20;45.70;;;20.98;30.68;98864.03;4835487;28;123351;-91
2022/05/28 13:11:37;;;;;;;3.60;1.30;;;20.30;46.10;;;21.11;30.19;98857.00;4836666;29;123206;-93
2022/05/28 13:14:27;;;;;;;3.00;1.30;;;20.50;45.50;;;21.16;30.10;98854.66;4839600;28;113970;-91
2022/05/28 13:16:59;;;;;;;3.63;1.50;;;20.50;44.90;;;21.22;30.36;98834.66;4853035;28;116105;-92
2022/05/28 13:19:34;;;;;;;3.47;1.50;;;20.50;45.30;;;21.34;30.31;98837.22;4850566;29;124109;-91
2022/05/28 13:22:42;;;;;;;4.17;1.20;;;20.70;45.70;;;21.44;29.64;98836.56;4855641;28;124559;-91
2022/05/28 13:25:50;;;;;;;1.67;1.10;;;20.80;44.70;;;21.45;29.57;98831.75;4819933;28;113934;-91
2022/05/28 13:28:48;;;;;;;3.57;1.70;;;20.90;44.20;;;21.52;29.61;98826.19;4827536;28;113871;-90
2022/05/28 13:31:18;;;;;;;5.40;1.30;;;20.90;44.20;;;21.52;29.37;98821.38;4840962;28;123943;-90
2022/05/28 13:33:44;;;;;;;3.47;1.70;;;21.00;43.40;;;21.54;29.10;98807.72;4854730;28;123903;-90
2022/05/28 13:36:14;;;;;;;2.30;1.20;;;21.00;43.70;;;21.59;28.98;98810.19;4835180;29;113397;-90
2022/05/28 13:38:49;;;;;;;2.37;1.33;;;21.00;43.30;;;21.72;28.93;98821.19;4837712;29;113257;-90
2022/05/28 13:41:28;;;;;;;3.00;1.20;;;21.10;43.40;;;21.85;28.62;98805.63;4837759;29;123543;-92
2022/05/28 13:44:05;;;;;;;3.10;1.00;;;21.20;42.60;;;21.89;28.44;98805.66;4851792;28;123242;-90
2022/05/28 13:46:34;;;;;;;4.83;1.40;;;21.30;42.40;;;21.90;26.50;98785.59;4833875;29;114596;-91
2022/05/28 13:49:08;;;;;;;3.33;1.37;;;21.40;39.80;;;21.90;26.32;98791.22;4822980;29;114052;-91
2022/05/28 13:51:37;;;;;;;4.17;1.70;;;21.40;39.00;;;21.94;26.90;98806.09;4832332;29;124135;-91
2022/05/28 13:54:11;;;;;;;1.33;0.90;;;21.40;39.90;;;22.08;27.07;98796.97;4832905;29;123907;-91
2022/05/28 13:56:38;;;;;;;2.30;1.30;;;21.50;40.60;;;22.21;27.12;98786.25;4835481;29;114321;-92
2022/05/28 13:59:05;;;;;;;3.37;1.30;;;21.60;40.00;;;22.26;26.58;98786.69;4825174;29;114164;-91
2022/05/28 14:01:38;;;;;;;2.70;1.40;;;21.60;39.80;;;22.19;27.03;98774.56;4836508;29;124098;-92
2022/05/28 14:04:25;;;;;;;1.77;0.97;;;21.60;39.60;;;22.10;27.13;98776.91;4820713;29;123740;-90
2022/05/28 14:07:00;;;;;;;1.73;1.20;;;21.60;39.80;;;22.17;27.05;98782.59;4838621;29;114428;-92
2022/05/28 14:09:40;;;;;;;1.40;1.10;;;21.70;40.30;;;22.19;27.02;98775.41;4835970;29;113957;-92
2022/05/28 14:12:09;;;;;;;2.00;1.30;;;21.70;39.50;;;22.33;27.09;98777.50;4829887;29;124340;-91
2022/05/28 14:14:44;;;;;;;3.80;1.40;;;21.80;40.10;;;22.48;25.96;98759.47;4836331;29;123802;-93
2022/05/28 14:17:29;;;;;;;3.80;1.30;;;21.90;38.20;;;22.57;25.66;98769.56;4836722;29;114246;-93
2022/05/28 14:19:57;;;;;;;2.80;1.27;;;21.90;38.60;;;22.61;25.90;98771.22;4836752;29;113319;-93
2022/05/28 14:22:44;;;;;;;4.43;1.63;;;22.00;38.40;;;22.62;26.07;98763.56;4835703;29;124154;-91
2022/05/28 14:25:22;;;;;;;2.67;1.30;;;22.00;38.60;;;22.67;25.98;98782.91;4833638;29;123764;-90
2022/05/28 14:27:50;;;;;;;1.93;1.10;;;22.10;38.40;;;22.71;26.10;98764.84;4836682;29;114542;-91
2022/05/28 14:30:18;;;;;;;2.40;1.17;;;22.10;38.30;;;22.74;25.91;98780.13;4833513;29;113133;-91
2022/05/28 14:32:46;;;;;;;3.30;1.20;;;22.10;38.60;;;22.80;25.84;98760.84;4836814;29;122318;-92
2022/05/28 14:35:43;;;;;;;2.17;1.10;;;22.20;38.30;;;22.77;26.14;98765.25;4836076;29;124310;-92
2022/05/28 14:38:14;;;;;;;1.10;1.00;;;22.20;38.00;;;22.84;26.11;98751.22;4840125;29;114485;-92
2022/05/28 14:40:51;;;;;;;1.93;1.10;;;22.30;38.40;;;23.00;25.93;98750.06;4820929;29;113053;-92
2022/05/28 14:43:28;;;;;;;2.20;1.27;;;22.40;38.80;;;23.15;26.37;98746.13;4833107;29;124182;-92
2022/05/28 14:46:35;;;;;;;2.00;1.13;;;22.50;38.90;;;23.28;25.21;98740.91;4837129;29;124358;-90
2022/05/28 14:49:14;;;;;;;2.83;1.30;;;22.60;37.70;;;23.37;24.88;98724.41;4849969;28;114836;-92
2022/05/28 14:51:42;;;;;;;1.63;1.10;;;22.70;37.20;;;23.40;24.75;98751.00;4854735;28;114250;-90
2022/05/28 14:54:30;;;;;;;1.93;1.17;;;22.80;37.10;;;23.43;25.04;98736.91;4856014;29;124262;-92
2022/05/28 14:56:58;;;;;;;2.23;1.20;;;22.80;36.90;;;23.44;24.46;98740.53;4854188;28;123682;-91
2022/05/28 14:59:43;;;;;;;1.57;1.03;;;22.90;36.20;;;23.43;24.35;98722.00;4854143;28;114341;-92
2022/05/28 15:02:28;;;;;;;3.13;1.33;;;22.90;35.50;;;23.49;24.44;98728.88;4856989;28;113973;-92
2022/05/28 15:05:30;;;;;;;1.80;1.03;;;22.90;35.80;;;23.65;24.64;98734.13;4853250;28;126053;-90
2022/05/28 15:08:00;;;;;;;2.43;1.23;;;23.10;36.10;;;23.76;24.13;98709.56;4796717;29;123927;-90
2022/05/28 15:10:42;;;;;;;2.20;1.30;;;23.10;35.80;;;23.69;24.09;98707.50;4845907;29;114265;-90
2022/05/28 15:13:21;;;;;;;1.20;1.10;;;23.20;35.60;;;23.74;24.54;98732.53;4852573;28;114005;-91
2022/05/28 15:15:51;;;;;;;1.40;1.00;;;23.20;36.10;;;23.76;24.13;98707.53;4852502;28;123536;-91
2022/05/28 15:18:22;;;;;;;1.67;1.10;;;23.30;35.70;;;23.75;24.40;98703.13;4851984;28;124318;-89
2022/05/28 15:20:51;;;;;;;2.67;1.30;;;23.20;35.70;;;23.84;24.10;98711.19;4852089;28;114601;-90
2022/05/28 15:23:18;;;;;;;1.17;1.07;;;23.30;35.70;;;23.97;24.40;98715.19;4853287;28;114121;-92
2022/05/28 15:25:44;;;;;;;1.40;1.00;;;23.40;36.00;;;23.98;23.88;98704.72;4852580;28;124092;-91
2022/05/28 15:28:11;;;;;;;1.67;1.17;;;23.40;35.20;;;23.91;23.92;98704.72;4852662;28;123775;-92
2022/05/28 15:30:38;;;;;;;2.20;1.23;;;23.40;35.60;;;23.91;23.81;98691.44;4854927;28;114311;-90
2022/05/28 15:33:14;;;;;;;2.90;1.40;;;23.40;34.90;;;23.93;23.83;98699.47;4854414;29;113995;-91
2022/05/28 15:38:27;;;;;;;3.90;1.00;;;23.40;34.70;;;24.09;23.35;98691.38;4854076;28;124352;-89
2022/05/28 15:41:00;;;;;;;2.43;1.10;;;23.50;34.20;;;24.08;23.34;98688.97;4852194;28;115259;-92
2022/05/28 15:43:27;;;;;;;2.33;1.20;;;23.60;34.00;;;24.08;23.08;98689.78;4835779;28;114906;-91
2022/05/28 15:45:54;;;;;;;4.03;1.13;;;23.60;33.80;;;24.06;22.98;98685.75;4852023;28;126029;-89
2022/05/28 15:48:20;;;;;;;1.10;0.97;;;23.60;33.60;;;23.96;23.35;98676.06;4848284;28;122926;-91
2022/05/28 15:50:48;;;;;;;2.40;1.20;;;23.50;33.70;;;23.97;23.70;98683.34;4839283;29;114479;-90
2022/05/28 15:53:18;;;;;;;4.30;1.10;;;23.50;34.30;;;23.99;23.33;98686.56;4821147;29;113131;-90
2022/05/28 15:55:46;;;;;;;3.10;1.17;;;23.50;34.10;;;24.05;23.41;98678.50;4853941;28;123853;-90
2022/05/28 15:58:26;;;;;;;2.30;1.27;;;23.50;34.00;;;24.05;23.79;98668.00;4855583;28;123810;-90
2022/05/28 16:00:54;;;;;;;1.97;1.17;;;23.50;34.20;;;24.05;23.42;98670.84;4850897;28;115029;-91
2022/05/28 16:03:21;;;;;;;2.07;1.13;;;23.50;34.20;;;24.12;23.71;98672.81;4852931;28;114286;-91